Elbe, WA (98330)

7:36 PM PDT on September 14, 2014 (GMT -0700)
Mineral Creek Rd | Change Station
CLOSE
Current Station
Personal Weather Station
Location: Mineral, WA
Elevation: 1411 ft
Nearby Weather Stations

Elev 1411 ft 46.72 °N, 122.15 °W | Updated 25 seconds ago

Clear
Clear
65.8 °F
Feels Like 65.8 °F
N
0.0
Wind Variable Wind from West
Gusts 0.0 mph

Today
High -- | Low -- °F
--% Chance of Precip.
Yesterday
High -- | Low -- °F
Precip. -- in
6:45 AM 7:22 PM
Waning Gibbous, 60% visible
Pressure 29.84 in
Visibility 10.0 miles
Clouds Clear
Dew Point 53 °F
Humidity 64%
Rainfall 0.00 in
Snow Depth 0 in , 0 in , 0 in
UV 0 out of 12
Pollen 1.90 out of 12
Air Quality Not available.
Flu Activity Not available.
METAR KGRF 150158Z AUTO 31004KT 10SM CLR 27/04 A2983 RMK AO2 SLP104 T02660035 PWINO

More Conditions Fewer Conditions

Pressure 29.84 in
Visibility 10.0 miles
Clouds Clear
Dew Point 53 °F
Humidity 64%
Rainfall 0.00 in
Snow Depth 0 in , 0 in , 0 in
UV 0 out of 12
Pollen 1.90 out of 12
Air Quality Not available.
Flu Activity Not available.
METAR KGRF 150158Z AUTO 31004KT 10SM CLR 27/04 A2983 RMK AO2 SLP104 T02660035 PWINO

More Conditions Fewer Conditions

10-Day Weather Forecast

Almanac

Astronomy

Sep. 14, 2014 Rise Set
Actual Time 6:45 AM PDT 7:22 PM PDT
Civil Twilight 6:14 AM PDT 7:52 PM PDT
Nautical Twilight 5:38 AM PDT 8:28 PM PDT
Astronomical Twilight 5:00 AM PDT 9:06 PM PDT
Moon 10:57 PM PDT (9/14) 1:17 PM PDT (9/14)
Length of Visible Light 13h 37m
Length of Day
12h 36m
Tomorrow will be 3m 18s shorter.
Waning Gibbous, 60% of the Moon is Illuminated
Today
Waning Gibbous
Sep 15
Last Quarter
Sep 24
New
Oct 1
First Quarter
Oct 8
Full

Today's Extremes

State Highs State Lows

Community

WunderPhotos

Upload Photos

1,753,381 photos uploaded!

Nearby

Snow Depth

Station Depth Elevation
Quartz Peak 0 in 4700 ft
Fish Lake 0 in 3371 ft
Green Lake 0 in 6000 ft
Stevens Pass 0 in 4070 ft
Moses Mountain 1 in 5300 ft

Earthquake Activity

City Distance Mag. Time & Date
No recent earthquake activity has been reported nearby.
Minimum magnitude displayed is 2.5.

Coastal Water Temperatures

Place Temperature
No Stations Reporting

Nearby Weather Stations